createdAt,value
2019-05-21T00:00:27.761Z,17.10
2019-05-21T00:01:26.219Z,17.12
2019-05-21T00:02:26.157Z,17.13
2019-05-21T00:03:26.125Z,17.12
2019-05-21T00:04:28.534Z,17.14
2019-05-21T00:05:26.075Z,17.14
2019-05-21T00:06:26.106Z,17.10
2019-05-21T00:07:26.497Z,17.17
2019-05-21T00:08:26.031Z,17.12
2019-05-21T00:09:25.948Z,17.19
2019-05-21T00:10:26.006Z,17.25
2019-05-21T00:11:25.999Z,17.20
2019-05-21T00:12:25.893Z,17.19
2019-05-21T00:14:26.416Z,17.16
2019-05-21T00:15:25.949Z,17.19
2019-05-21T00:16:25.926Z,17.22
2019-05-21T00:17:25.922Z,17.24
2019-05-21T00:18:25.750Z,17.17
2019-05-21T00:19:25.795Z,17.13
2019-05-21T00:20:25.850Z,17.25
2019-05-21T00:21:26.155Z,17.20
2019-05-21T00:22:26.189Z,17.20
2019-05-21T00:23:25.968Z,17.17
2019-05-21T00:24:25.822Z,17.24
2019-05-21T00:25:25.770Z,17.24
2019-05-21T00:26:25.909Z,17.22
2019-05-21T00:27:26.044Z,17.16
2019-05-21T00:28:26.119Z,17.16
2019-05-21T00:29:25.711Z,17.14
2019-05-21T00:30:25.684Z,17.20
2019-05-21T00:31:25.591Z,17.24
2019-05-21T00:32:25.574Z,17.17
2019-05-21T00:33:25.920Z,17.24
2019-05-21T00:34:25.588Z,17.17
2019-05-21T00:35:25.909Z,17.19
2019-05-21T00:36:25.958Z,17.14
2019-05-21T00:37:25.980Z,17.12
2019-05-21T00:38:25.580Z,17.14
2019-05-21T00:40:25.474Z,17.25
2019-05-21T00:41:25.748Z,17.17
2019-05-21T00:42:25.760Z,17.20
2019-05-21T00:43:25.680Z,17.27
2019-05-21T00:44:25.526Z,17.14
2019-05-21T00:45:25.478Z,17.24
2019-05-21T00:46:25.322Z,17.24
2019-05-21T00:47:25.362Z,17.24
2019-05-21T00:48:25.732Z,17.22
2019-05-21T00:49:25.536Z,17.28
2019-05-21T00:50:25.915Z,17.22
2019-05-21T00:51:25.330Z,17.20
2019-05-21T00:52:25.733Z,17.17
2019-05-21T00:53:25.317Z,17.13
2019-05-21T00:54:25.600Z,17.17
2019-05-21T00:55:25.640Z,17.13
2019-05-21T00:56:25.325Z,17.17
2019-05-21T00:57:25.249Z,17.09
2019-05-21T00:58:25.236Z,17.16
2019-05-21T00:59:25.235Z,17.10
2019-05-21T01:00:25.588Z,17.10
2019-05-21T01:01:25.369Z,17.14
2019-05-21T01:02:25.166Z,17.24
2019-05-21T01:03:25.138Z,17.16
2019-05-21T01:04:25.108Z,17.22
2019-05-21T01:05:25.193Z,17.17
2019-05-21T01:06:25.459Z,17.17
2019-05-21T01:07:25.253Z,17.06
2019-05-21T01:08:25.014Z,17.16
2019-05-21T01:09:25.413Z,17.10
2019-05-21T01:10:25.009Z,17.14
2019-05-21T01:11:26.175Z,17.14
2019-05-21T01:12:25.386Z,17.12
2019-05-21T01:13:25.218Z,17.17
2019-05-21T01:14:24.972Z,17.14
2019-05-21T01:15:24.902Z,17.16
2019-05-21T01:16:25.004Z,17.14
2019-05-21T01:17:24.959Z,17.17
2019-05-21T01:18:25.238Z,17.16
2019-05-21T01:19:24.871Z,17.13
2019-05-21T01:20:24.913Z,17.17
2019-05-21T01:21:24.933Z,17.09
2019-05-21T01:22:24.862Z,17.13
2019-05-21T01:23:24.885Z,17.13
2019-05-21T01:24:24.800Z,17.25
2019-05-21T01:25:25.361Z,17.17
2019-05-21T01:26:24.697Z,17.24
2019-05-21T01:27:24.863Z,17.28
2019-05-21T01:28:24.702Z,17.20
2019-05-21T01:29:24.811Z,17.25
2019-05-21T01:30:24.798Z,17.19
2019-05-21T01:31:24.746Z,17.25
2019-05-21T01:32:25.115Z,17.22
2019-05-21T01:34:24.843Z,17.17
2019-05-21T01:35:24.597Z,17.27
2019-05-21T01:36:24.667Z,17.17
2019-05-21T01:37:24.591Z,17.19
2019-05-21T01:38:24.944Z,17.20
2019-05-21T01:39:24.967Z,17.13
2019-05-21T01:40:24.958Z,17.13
2019-05-21T01:41:24.550Z,17.19
2019-05-21T01:43:24.514Z,17.17
2019-05-21T01:44:24.447Z,17.24
2019-05-21T01:45:24.481Z,17.19
2019-05-21T01:46:25.031Z,17.14
2019-05-21T01:47:24.441Z,17.22
2019-05-21T01:48:24.400Z,17.12
2019-05-21T01:49:24.475Z,17.17
2019-05-21T01:50:24.302Z,17.19
2019-05-21T01:51:24.477Z,17.12
2019-05-21T01:52:26.122Z,17.14
2019-05-21T01:53:24.752Z,17.22
2019-05-21T01:54:24.708Z,17.22
2019-05-21T01:55:24.288Z,17.19
2019-05-21T01:56:24.803Z,17.14
2019-05-21T01:57:24.563Z,17.16
2019-05-21T01:58:24.364Z,17.12
2019-05-21T01:59:24.154Z,17.13
2019-05-21T02:00:24.574Z,17.13
2019-05-21T02:01:24.278Z,17.12
2019-05-21T02:03:24.160Z,17.16
2019-05-21T02:04:24.435Z,17.07
2019-05-21T02:05:32.484Z,17.14
2019-05-21T02:07:24.570Z,17.12
2019-05-21T02:08:24.363Z,17.07
2019-05-21T02:09:24.016Z,17.04
2019-05-21T02:10:24.138Z,17.04
2019-05-21T02:11:24.024Z,16.95
2019-05-21T02:12:24.116Z,17.12
2019-05-21T02:13:24.651Z,17.04
2019-05-21T02:14:24.441Z,17.10
2019-05-21T02:15:23.954Z,17.04
2019-05-21T02:16:24.218Z,16.95
2019-05-21T02:17:23.956Z,16.95
2019-05-21T02:18:23.950Z,16.99
2019-05-21T02:19:24.326Z,16.97
2019-05-21T02:20:23.993Z,16.98
2019-05-21T02:21:23.948Z,16.98
2019-05-21T02:22:24.475Z,16.97
2019-05-21T02:23:23.951Z,16.95
2019-05-21T02:24:23.842Z,16.95
2019-05-21T02:25:24.512Z,16.97
2019-05-21T02:26:23.742Z,16.95
2019-05-21T02:27:23.873Z,16.91
2019-05-21T02:28:24.108Z,16.97
2019-05-21T02:29:23.697Z,16.95
2019-05-21T02:30:24.124Z,16.91
2019-05-21T02:31:24.076Z,16.87
2019-05-21T02:32:23.754Z,16.92
2019-05-21T02:33:24.127Z,16.90
2019-05-21T02:34:23.774Z,16.80
2019-05-21T02:35:23.696Z,16.84
2019-05-21T02:36:23.690Z,16.79
2019-05-21T02:37:23.970Z,16.79
2019-05-21T02:38:23.655Z,16.82
2019-05-21T02:39:23.678Z,16.82
2019-05-21T02:40:23.846Z,16.88
2019-05-21T02:41:23.745Z,16.80
2019-05-21T02:43:23.996Z,16.83
2019-05-21T02:44:23.806Z,16.80
2019-05-21T02:45:23.460Z,16.84
2019-05-21T02:46:23.721Z,16.76
2019-05-21T02:47:23.545Z,16.80
2019-05-21T02:48:23.564Z,16.77
2019-05-21T02:49:23.747Z,16.79
2019-05-21T02:50:23.597Z,16.88
2019-05-21T02:51:23.375Z,16.73
2019-05-21T02:52:23.697Z,16.79
2019-05-21T02:53:23.368Z,16.74
2019-05-21T02:54:39.478Z,16.72
2019-05-21T02:55:23.393Z,16.80
2019-05-21T02:56:23.674Z,16.73
2019-05-21T02:59:23.352Z,16.83
2019-05-21T03:00:23.204Z,16.88
2019-05-21T03:02:23.657Z,16.79
2019-05-21T03:03:23.177Z,16.77
2019-05-21T03:04:24.555Z,16.73
2019-05-21T03:05:23.260Z,16.73
2019-05-21T03:06:23.355Z,16.73
2019-05-21T03:07:25.581Z,16.70
2019-05-21T03:08:23.172Z,16.72
2019-05-21T03:09:23.546Z,16.77
2019-05-21T03:10:23.165Z,16.77
2019-05-21T03:11:23.112Z,16.77
2019-05-21T03:12:23.544Z,16.73
2019-05-21T03:13:23.100Z,16.79
2019-05-21T03:14:23.131Z,16.76
2019-05-21T03:15:23.111Z,16.79
2019-05-21T03:16:23.446Z,16.76
2019-05-21T03:17:23.061Z,16.76
2019-05-21T03:18:23.001Z,16.72
2019-05-21T03:19:22.962Z,16.73
2019-05-21T03:20:22.959Z,16.64
2019-05-21T03:21:23.019Z,16.64
2019-05-21T03:22:23.131Z,16.69
2019-05-21T03:23:23.335Z,16.73
2019-05-21T03:24:22.981Z,16.74
2019-05-21T03:25:23.033Z,16.76
2019-05-21T03:26:23.154Z,16.73
2019-05-21T03:27:22.929Z,16.73
2019-05-21T03:29:22.823Z,16.70
2019-05-21T03:30:23.172Z,16.79
2019-05-21T03:31:22.835Z,16.73
2019-05-21T03:32:22.720Z,16.76
2019-05-21T03:33:22.820Z,16.69
2019-05-21T03:34:22.907Z,16.72
2019-05-21T03:35:22.809Z,16.77
2019-05-21T03:36:33.267Z,16.74
2019-05-21T03:37:22.772Z,16.69
2019-05-21T03:38:22.627Z,16.72
2019-05-21T03:39:22.650Z,16.74
2019-05-21T03:40:22.702Z,16.74
2019-05-21T03:41:22.680Z,16.72
2019-05-21T03:42:22.723Z,16.73
2019-05-21T03:43:22.950Z,16.73
2019-05-21T03:44:22.802Z,16.74
2019-05-21T03:45:22.521Z,16.73
2019-05-21T03:46:22.793Z,16.74
2019-05-21T03:47:22.590Z,16.79
2019-05-21T03:48:22.491Z,16.77
2019-05-21T03:50:22.441Z,16.74
2019-05-21T03:51:22.409Z,16.76
2019-05-21T03:52:22.666Z,16.72
2019-05-21T03:53:22.531Z,16.72
2019-05-21T03:54:22.508Z,16.74
2019-05-21T03:55:23.360Z,16.76
2019-05-21T03:56:22.399Z,16.72
2019-05-21T03:57:22.429Z,16.74
2019-05-21T03:58:23.370Z,16.74
2019-05-21T03:59:22.328Z,16.79
2019-05-21T04:00:22.289Z,16.76
2019-05-21T04:02:22.230Z,16.73
2019-05-21T04:03:22.308Z,16.76
2019-05-21T04:04:22.416Z,16.80
2019-05-21T04:05:22.373Z,16.77
2019-05-21T04:06:22.170Z,16.74
2019-05-21T04:07:22.448Z,16.77
2019-05-21T04:08:22.327Z,16.74
2019-05-21T04:09:22.641Z,16.72
2019-05-21T04:11:22.254Z,16.79
2019-05-21T04:12:22.239Z,16.77
2019-05-21T04:13:22.576Z,16.76
2019-05-21T04:14:22.418Z,16.77
2019-05-21T04:15:22.028Z,16.83
2019-05-21T04:16:22.224Z,16.87
2019-05-21T04:17:22.180Z,16.84
2019-05-21T04:18:22.279Z,16.79
2019-05-21T04:19:22.287Z,16.80
2019-05-21T04:21:21.938Z,16.79
2019-05-21T04:22:22.257Z,16.80
2019-05-21T04:23:22.023Z,16.84
2019-05-21T04:24:21.928Z,16.76
2019-05-21T04:25:21.957Z,16.76
2019-05-21T04:26:22.321Z,16.79
2019-05-21T04:27:21.977Z,16.80
2019-05-21T04:28:22.430Z,16.77
2019-05-21T04:29:21.810Z,16.80
2019-05-21T04:30:21.935Z,16.82
2019-05-21T04:31:21.866Z,16.80
2019-05-21T04:32:21.918Z,16.80
2019-05-21T04:33:22.278Z,16.80
2019-05-21T04:34:22.038Z,16.83
2019-05-21T04:35:21.933Z,16.84
2019-05-21T04:36:21.778Z,16.83
2019-05-21T04:37:21.735Z,16.83
2019-05-21T04:38:21.811Z,16.83
2019-05-21T04:39:22.195Z,16.79
2019-05-21T04:40:22.296Z,16.74
2019-05-21T04:41:21.770Z,16.82
2019-05-21T04:42:21.648Z,16.80
2019-05-21T04:43:21.643Z,16.84
2019-05-21T04:44:22.360Z,16.77
2019-05-21T04:45:22.033Z,16.82
2019-05-21T04:46:22.300Z,16.87
2019-05-21T04:47:22.025Z,16.83
2019-05-21T04:48:21.658Z,16.87
2019-05-21T04:49:21.633Z,16.83
2019-05-21T04:50:21.581Z,16.90
2019-05-21T04:51:21.578Z,16.94
2019-05-21T04:52:21.821Z,16.91
2019-05-21T04:53:22.330Z,16.92
2019-05-21T04:54:22.053Z,16.88
2019-05-21T04:55:21.525Z,16.94
2019-05-21T04:56:21.522Z,16.97
2019-05-21T04:57:21.847Z,16.94
2019-05-21T04:58:21.635Z,16.95
2019-05-21T04:59:21.358Z,16.90
2019-05-21T05:00:21.867Z,16.97
2019-05-21T05:01:21.815Z,16.99
2019-05-21T05:02:21.346Z,16.98
2019-05-21T05:03:21.299Z,16.98
2019-05-21T05:04:22.304Z,17.07
2019-05-21T05:05:21.255Z,17.04
2019-05-21T05:06:21.246Z,16.94
2019-05-21T05:07:28.305Z,16.98
2019-05-21T05:08:21.527Z,16.99
2019-05-21T05:09:21.366Z,17.02
2019-05-21T05:10:21.466Z,16.99
2019-05-21T05:11:21.174Z,16.97
2019-05-21T05:12:21.153Z,17.02
2019-05-21T05:13:21.592Z,16.98
2019-05-21T05:14:21.445Z,17.01
2019-05-21T05:15:21.102Z,16.97
2019-05-21T05:16:21.136Z,17.09
2019-05-21T05:17:21.074Z,17.01
2019-05-21T05:18:21.072Z,17.04
2019-05-21T05:19:21.037Z,16.99
2019-05-21T05:20:21.428Z,17.02
2019-05-21T05:21:21.079Z,17.02
2019-05-21T05:23:20.980Z,17.16
2019-05-21T05:24:21.012Z,17.10
2019-05-21T05:25:21.721Z,17.12
2019-05-21T05:26:21.463Z,17.22
2019-05-21T05:27:20.940Z,17.16
2019-05-21T05:28:21.076Z,17.24
2019-05-21T05:30:20.919Z,17.24
2019-05-21T05:31:20.901Z,17.24
2019-05-21T05:32:22.138Z,17.22
2019-05-21T05:33:20.831Z,17.31
2019-05-21T05:34:22.376Z,17.30
2019-05-21T05:35:20.863Z,17.20
2019-05-21T05:36:21.532Z,17.25
2019-05-21T05:37:22.351Z,17.30
2019-05-21T05:38:22.409Z,17.24
2019-05-21T05:39:21.230Z,17.22
2019-05-21T05:40:20.993Z,17.32
2019-05-21T05:42:21.249Z,17.31
2019-05-21T05:43:20.842Z,17.31
2019-05-21T05:44:21.718Z,17.25
2019-05-21T05:45:21.284Z,17.25
2019-05-21T05:46:21.450Z,17.35
2019-05-21T05:47:20.623Z,17.25
2019-05-21T05:48:20.656Z,17.28
2019-05-21T05:49:20.740Z,17.24
2019-05-21T05:50:20.757Z,17.34
2019-05-21T05:51:20.713Z,17.41
2019-05-21T05:52:20.591Z,17.41
2019-05-21T05:53:20.619Z,17.28
2019-05-21T05:54:20.693Z,17.32
2019-05-21T05:55:20.596Z,17.27
2019-05-21T05:56:20.802Z,17.31
2019-05-21T05:57:22.042Z,17.19
2019-05-21T05:58:21.452Z,17.24
2019-05-21T05:59:20.457Z,17.20
2019-05-21T06:01:20.414Z,17.27
2019-05-21T06:02:20.789Z,17.28
2019-05-21T06:03:25.622Z,17.32
2019-05-21T06:05:21.475Z,17.22
2019-05-21T06:06:20.793Z,17.32
2019-05-21T06:07:20.474Z,17.34
2019-05-21T06:09:20.672Z,17.25
2019-05-21T06:16:20.290Z,17.45
2019-05-21T06:17:21.004Z,17.50
2019-05-21T06:18:21.733Z,17.54
2019-05-21T06:19:20.886Z,17.57
2019-05-21T06:20:20.253Z,17.63
2019-05-21T06:21:20.398Z,17.76
2019-05-21T06:22:20.128Z,17.76
2019-05-21T06:24:20.394Z,17.87
2019-05-21T06:25:20.981Z,17.84
2019-05-21T06:26:20.181Z,17.75
2019-05-21T06:27:20.258Z,17.62
2019-05-21T06:28:20.554Z,17.68
2019-05-21T06:29:20.440Z,17.73
2019-05-21T06:30:20.649Z,17.75
2019-05-21T06:31:20.371Z,17.78
2019-05-21T06:32:20.041Z,17.86
2019-05-21T06:33:21.436Z,17.91
2019-05-21T06:34:20.353Z,17.79
2019-05-21T06:37:19.913Z,17.84
2019-05-21T06:38:20.300Z,17.78
2019-05-21T06:39:20.076Z,17.81
2019-05-21T06:40:20.114Z,17.75
2019-05-21T06:42:19.873Z,17.78
2019-05-21T06:43:20.157Z,17.76
2019-05-21T06:45:20.310Z,17.87
2019-05-21T06:46:19.887Z,18.11
2019-05-21T06:47:19.764Z,18.08
2019-05-21T06:49:19.734Z,18.01
2019-05-21T06:50:19.734Z,17.93
2019-05-21T06:51:20.322Z,18.11
2019-05-21T06:52:19.693Z,18.08
2019-05-21T06:53:19.755Z,17.91
2019-05-21T06:54:19.733Z,17.91
2019-05-21T06:55:19.668Z,17.97
2019-05-21T06:56:19.651Z,17.93
2019-05-21T06:58:20.086Z,17.87
2019-05-21T06:59:20.360Z,17.88
2019-05-21T07:00:19.663Z,17.79
2019-05-21T07:01:27.512Z,17.79
2019-05-21T07:02:19.631Z,17.68
2019-05-21T07:03:20.037Z,17.69
2019-05-21T07:04:21.366Z,17.69
2019-05-21T07:05:19.654Z,17.69
2019-05-21T07:06:19.555Z,17.65
2019-05-21T07:07:19.506Z,17.62
2019-05-21T07:08:33.569Z,17.65
2019-05-21T07:09:19.486Z,17.63
2019-05-21T07:10:19.876Z,17.53
2019-05-21T07:11:19.519Z,17.43
2019-05-21T07:12:19.500Z,17.46
2019-05-21T07:13:19.916Z,17.57
2019-05-21T07:14:19.569Z,17.59
2019-05-21T07:15:19.987Z,17.68
2019-05-21T07:16:20.035Z,17.72
2019-05-21T07:17:19.411Z,17.75
2019-05-21T07:18:19.617Z,17.66
2019-05-21T07:19:19.551Z,17.71
2019-05-21T07:21:19.466Z,17.76
2019-05-21T07:24:19.321Z,17.75
2019-05-21T07:30:20.097Z,17.59
2019-05-21T07:31:19.698Z,17.69
2019-05-21T07:32:19.208Z,17.59
2019-05-21T07:33:19.265Z,17.66
2019-05-21T07:34:19.242Z,17.57
2019-05-21T07:35:19.172Z,17.45
2019-05-21T07:36:19.192Z,17.54
2019-05-21T07:37:19.380Z,17.41
2019-05-21T07:38:19.076Z,17.46
2019-05-21T07:39:19.076Z,17.38
2019-05-21T07:41:20.401Z,17.45
2019-05-21T07:42:19.129Z,17.49
2019-05-21T07:43:19.024Z,17.47
2019-05-21T07:44:19.287Z,17.46
2019-05-21T07:46:18.961Z,17.62
2019-05-21T07:47:18.941Z,17.62
2019-05-21T07:48:29.634Z,17.57
2019-05-21T07:49:18.907Z,17.49
2019-05-21T07:50:18.897Z,17.47
2019-05-21T07:51:19.383Z,17.53
2019-05-21T07:52:18.873Z,17.56
2019-05-21T07:53:18.906Z,17.62
2019-05-21T07:54:19.049Z,17.62
2019-05-21T07:55:18.894Z,17.63
2019-05-21T07:56:18.938Z,17.54
2019-05-21T07:57:18.801Z,17.54
2019-05-21T07:58:19.213Z,17.57
2019-05-21T08:00:19.011Z,17.53
2019-05-21T08:01:18.759Z,17.57
2019-05-21T08:02:18.750Z,17.54
2019-05-21T08:03:18.922Z,17.49
2019-05-21T08:04:18.807Z,17.54
2019-05-21T08:05:19.088Z,17.45
2019-05-21T08:06:18.722Z,17.53
2019-05-21T08:07:18.676Z,17.45
2019-05-21T08:08:18.657Z,17.43
2019-05-21T08:09:18.689Z,17.47
2019-05-21T08:10:18.662Z,17.49
2019-05-21T08:11:18.943Z,17.50
2019-05-21T08:12:37.473Z,17.47
2019-05-21T08:13:19.044Z,17.50
2019-05-21T08:14:19.079Z,17.37
2019-05-21T08:15:18.562Z,17.37
2019-05-21T08:16:18.579Z,17.38
2019-05-21T08:17:18.818Z,17.38
2019-05-21T08:18:18.712Z,17.47
2019-05-21T08:19:18.517Z,17.45
2019-05-21T08:20:18.502Z,17.43
2019-05-21T08:21:18.594Z,17.45
2019-05-21T08:22:18.473Z,17.43
2019-05-21T08:23:18.800Z,17.49
2019-05-21T08:26:18.455Z,17.56
2019-05-21T08:27:18.431Z,17.43
2019-05-21T08:29:18.726Z,17.41
2019-05-21T08:30:18.583Z,17.46
2019-05-21T08:31:18.549Z,17.54
2019-05-21T08:32:18.362Z,17.56
2019-05-21T08:33:18.535Z,17.63
2019-05-21T08:34:18.361Z,17.65
2019-05-21T08:35:18.597Z,17.68
2019-05-21T08:36:18.471Z,17.65
2019-05-21T08:37:19.656Z,17.63
2019-05-21T08:38:18.239Z,17.65
2019-05-21T08:39:28.130Z,17.63
2019-05-21T08:40:18.984Z,17.69
2019-05-21T08:41:18.515Z,17.63
2019-05-21T08:42:18.176Z,17.63
2019-05-21T08:43:18.217Z,17.68
2019-05-21T08:44:18.150Z,17.68
2019-05-21T08:45:18.403Z,17.65
2019-05-21T08:46:18.204Z,17.68
2019-05-21T08:47:18.102Z,17.65
2019-05-21T08:48:18.087Z,17.65
2019-05-21T08:49:18.078Z,17.65
2019-05-21T08:50:18.085Z,17.56
2019-05-21T08:53:18.527Z,17.71
2019-05-21T08:54:18.272Z,17.62
2019-05-21T08:55:18.095Z,17.59
2019-05-21T08:56:18.563Z,17.69
2019-05-21T08:57:18.025Z,17.68
2019-05-21T08:58:18.048Z,17.68
2019-05-21T08:59:19.837Z,17.68
2019-05-21T09:00:18.225Z,17.63
2019-05-21T09:01:17.914Z,17.62
2019-05-21T09:02:17.893Z,17.63
2019-05-21T09:03:17.889Z,17.62
2019-05-21T09:04:17.887Z,17.66
2019-05-21T09:05:18.057Z,17.59
2019-05-21T09:06:17.872Z,17.56
2019-05-21T09:07:17.858Z,17.63
2019-05-21T09:08:17.887Z,17.69
2019-05-21T09:09:17.949Z,17.72
2019-05-21T09:10:17.939Z,17.72
2019-05-21T09:11:18.120Z,17.73
2019-05-21T09:12:18.154Z,17.75
2019-05-21T09:13:19.179Z,17.72
2019-05-21T09:14:17.789Z,17.73
2019-05-21T09:15:17.849Z,17.72
2019-05-21T09:16:17.869Z,17.79
2019-05-21T09:17:19.874Z,17.76
2019-05-21T09:18:17.708Z,17.78
2019-05-21T09:19:17.724Z,17.79
2019-05-21T09:20:18.481Z,17.79
2019-05-21T09:21:19.389Z,17.78
2019-05-21T09:22:17.634Z,17.79
2019-05-21T09:23:17.808Z,17.72
2019-05-21T09:24:17.594Z,17.76
2019-05-21T09:25:17.606Z,17.69
2019-05-21T09:26:17.563Z,17.69
2019-05-21T09:28:17.622Z,17.62
2019-05-21T09:29:18.957Z,17.73
2019-05-21T09:30:17.559Z,17.69
2019-05-21T09:31:17.509Z,17.66
2019-05-21T09:32:17.581Z,17.75
2019-05-21T09:33:17.470Z,17.78
2019-05-21T09:34:17.804Z,17.62
2019-05-21T09:35:17.483Z,17.62
2019-05-21T09:36:17.512Z,17.59
2019-05-21T09:38:17.393Z,17.49
2019-05-21T09:39:17.413Z,17.47
2019-05-21T09:40:17.371Z,17.46
2019-05-21T09:41:17.837Z,17.50
2019-05-21T09:43:17.344Z,17.49
2019-05-21T09:44:17.331Z,17.46
2019-05-21T09:45:17.330Z,17.45
2019-05-21T09:46:17.375Z,17.54
2019-05-21T09:47:17.625Z,17.49
2019-05-21T09:48:17.338Z,17.53
2019-05-21T09:49:17.234Z,17.50
2019-05-21T09:51:20.080Z,17.49
2019-05-21T09:52:17.350Z,17.62
2019-05-21T09:53:19.741Z,17.69
2019-05-21T09:54:17.241Z,17.68
2019-05-21T09:57:17.184Z,17.59
2019-05-21T09:58:17.227Z,17.62
2019-05-21T09:59:17.594Z,17.62
2019-05-21T10:00:30.065Z,17.57
2019-05-21T10:01:17.212Z,17.62
2019-05-21T10:02:17.179Z,17.72
2019-05-21T10:03:17.668Z,17.63
2019-05-21T10:04:17.674Z,17.69
2019-05-21T10:05:18.335Z,17.81
2019-05-21T10:06:17.187Z,17.75
2019-05-21T10:07:17.405Z,17.72
2019-05-21T10:08:16.970Z,17.78
2019-05-21T10:09:16.992Z,17.78
2019-05-21T10:10:17.005Z,17.81
2019-05-21T10:11:17.365Z,17.90
2019-05-21T10:12:16.925Z,17.97
2019-05-21T10:13:16.955Z,17.88
2019-05-21T10:14:16.896Z,17.91
2019-05-21T10:15:17.048Z,17.91
2019-05-21T10:16:16.870Z,17.86
2019-05-21T10:17:17.477Z,17.91
2019-05-21T10:19:16.965Z,18.13
2019-05-21T10:20:16.874Z,18.17
2019-05-21T10:21:16.793Z,18.13
2019-05-21T10:22:17.077Z,18.17
2019-05-21T10:24:17.126Z,18.12
2019-05-21T10:25:16.738Z,18.11
2019-05-21T10:26:19.231Z,18.05
2019-05-21T10:28:16.771Z,17.90
2019-05-21T10:29:16.672Z,17.76
2019-05-21T10:30:16.854Z,17.66
2019-05-21T10:31:16.953Z,17.47
2019-05-21T10:32:16.878Z,17.52
2019-05-21T10:33:16.673Z,17.43
2019-05-21T10:34:16.613Z,17.43
2019-05-21T10:35:16.652Z,17.43
2019-05-21T10:36:16.798Z,17.39
2019-05-21T10:37:16.618Z,17.43
2019-05-21T10:38:16.853Z,17.43
2019-05-21T10:39:16.558Z,17.49
2019-05-21T10:40:17.271Z,17.46
2019-05-21T10:41:16.865Z,17.27
2019-05-21T10:42:16.602Z,17.41
2019-05-21T10:43:16.582Z,17.39
2019-05-21T10:44:16.461Z,17.39
2019-05-21T10:45:16.772Z,17.45
2019-05-21T10:46:16.483Z,17.45
2019-05-21T10:47:16.631Z,17.45
2019-05-21T10:48:16.514Z,17.52
2019-05-21T10:49:16.391Z,17.49
2019-05-21T10:50:16.400Z,17.47
2019-05-21T10:51:16.358Z,17.46
2019-05-21T10:52:16.718Z,17.57
2019-05-21T10:53:16.429Z,17.59
2019-05-21T10:55:17.648Z,17.47
2019-05-21T10:56:16.330Z,17.47
2019-05-21T10:58:16.328Z,17.65
2019-05-21T10:59:16.251Z,17.75
2019-05-21T11:00:16.427Z,17.63
2019-05-21T11:01:16.903Z,17.56
2019-05-21T11:02:16.364Z,17.59
2019-05-21T11:03:17.338Z,17.65
2019-05-21T11:04:16.173Z,17.66
2019-05-21T11:05:16.619Z,17.65
2019-05-21T11:06:16.528Z,17.66
2019-05-21T11:07:16.991Z,17.75
2019-05-21T11:09:16.139Z,17.88
2019-05-21T11:10:16.142Z,17.88
2019-05-21T11:11:20.984Z,17.88
2019-05-21T11:12:16.259Z,17.93
2019-05-21T11:13:16.053Z,17.93
2019-05-21T11:14:16.035Z,17.87
2019-05-21T11:15:16.014Z,17.78
2019-05-21T11:18:16.575Z,17.81
2019-05-21T11:19:17.127Z,17.78
2019-05-21T11:21:16.513Z,17.65
2019-05-21T11:22:17.322Z,17.59
2019-05-21T11:26:16.605Z,17.76
2019-05-21T11:27:16.063Z,17.75
2019-05-21T11:28:16.117Z,17.75
2019-05-21T11:31:15.889Z,17.79
2019-05-21T11:33:16.230Z,17.79
2019-05-21T11:34:16.146Z,17.90
2019-05-21T11:35:15.908Z,17.91
2019-05-21T11:36:15.723Z,18.11
2019-05-21T11:38:16.462Z,17.99
2019-05-21T11:39:16.312Z,18.05
2019-05-21T11:40:16.411Z,18.17
2019-05-21T11:41:17.520Z,18.12
2019-05-21T11:42:15.671Z,18.20
2019-05-21T11:43:15.615Z,18.31
2019-05-21T11:44:15.614Z,18.38
2019-05-21T11:45:31.005Z,18.45
2019-05-21T11:47:16.004Z,18.36
2019-05-21T11:48:15.913Z,18.31
2019-05-21T11:49:15.551Z,18.31
2019-05-21T11:50:15.515Z,18.36
2019-05-21T11:51:17.034Z,18.36
2019-05-21T11:52:15.626Z,18.38
2019-05-21T11:53:15.943Z,18.28
2019-05-21T11:54:15.500Z,18.39
2019-05-21T11:55:15.585Z,18.43
2019-05-21T11:56:15.526Z,18.43
2019-05-21T11:57:15.433Z,18.54
2019-05-21T11:58:15.816Z,18.51
2019-05-21T11:59:15.781Z,18.43
2019-05-21T12:00:15.499Z,18.49
2019-05-21T12:01:15.406Z,18.34
2019-05-21T12:02:15.401Z,18.36
2019-05-21T12:03:15.367Z,18.34
2019-05-21T12:04:15.335Z,18.33
2019-05-21T12:05:16.964Z,18.26
2019-05-21T12:06:15.408Z,18.18
2019-05-21T12:07:15.325Z,18.17
2019-05-21T12:08:15.392Z,18.13
2019-05-21T12:10:15.237Z,18.17
2019-05-21T12:11:15.416Z,18.02
2019-05-21T12:12:15.511Z,17.93
2019-05-21T12:13:15.285Z,17.88
2019-05-21T12:14:15.204Z,17.78
2019-05-21T12:15:15.259Z,17.76
2019-05-21T12:16:15.249Z,17.66
2019-05-21T12:17:15.644Z,17.68
2019-05-21T12:18:15.367Z,17.68
2019-05-21T12:19:15.752Z,17.68
2019-05-21T12:20:15.353Z,17.59
2019-05-21T12:21:15.168Z,17.57
2019-05-21T12:23:15.733Z,17.59
2019-05-21T12:24:15.141Z,17.62
2019-05-21T12:25:15.062Z,17.43
2019-05-21T12:26:15.538Z,17.49
2019-05-21T12:27:15.020Z,17.41
2019-05-21T12:28:15.086Z,17.24
2019-05-21T12:30:15.566Z,17.27
2019-05-21T12:31:14.957Z,17.27
2019-05-21T12:33:15.250Z,17.41
2019-05-21T12:36:14.962Z,17.37
2019-05-21T12:38:14.899Z,17.34
2019-05-21T12:39:15.077Z,17.28
2019-05-21T12:40:15.126Z,17.24
2019-05-21T12:42:14.874Z,17.30
2019-05-21T12:43:15.017Z,17.27
2019-05-21T12:44:14.786Z,17.24
2019-05-21T12:46:15.093Z,17.27
2019-05-21T12:47:14.718Z,17.30
2019-05-21T12:48:15.025Z,17.32
2019-05-21T12:49:14.717Z,17.39
2019-05-21T12:50:14.722Z,17.43
2019-05-21T12:51:14.665Z,17.50
2019-05-21T12:52:14.986Z,17.54
2019-05-21T12:53:16.663Z,17.62
2019-05-21T12:55:14.929Z,17.53
2019-05-21T12:56:14.591Z,17.43
2019-05-21T12:57:14.668Z,17.46
2019-05-21T12:58:14.893Z,17.28
2019-05-21T12:59:14.695Z,17.22
2019-05-21T13:00:14.685Z,17.27
2019-05-21T13:01:14.526Z,17.17
2019-05-21T13:03:14.497Z,17.28
2019-05-21T13:05:14.524Z,17.39
2019-05-21T13:07:14.688Z,17.50
2019-05-21T13:08:14.407Z,17.52
2019-05-21T13:09:31.332Z,17.52
2019-05-21T13:10:15.909Z,17.59
2019-05-21T13:11:14.458Z,17.56
2019-05-21T13:12:14.616Z,17.66
2019-05-21T13:13:14.537Z,17.62
2019-05-21T13:14:18.558Z,17.54
2019-05-21T13:15:14.482Z,17.66
2019-05-21T13:16:14.661Z,17.66
2019-05-21T13:17:14.433Z,17.65
2019-05-21T13:18:14.549Z,17.63
2019-05-21T13:19:14.661Z,17.53
2019-05-21T13:20:14.485Z,17.62
2019-05-21T13:22:14.522Z,17.66
2019-05-21T13:23:14.201Z,17.68
2019-05-21T13:24:14.297Z,17.63
2019-05-21T13:25:14.195Z,17.62
2019-05-21T13:26:14.163Z,17.54
2019-05-21T13:27:14.240Z,17.68
2019-05-21T13:29:15.235Z,17.79
2019-05-21T13:30:14.959Z,17.78
2019-05-21T13:32:14.111Z,17.87
2019-05-21T13:33:14.068Z,18.11
2019-05-21T13:34:14.054Z,18.11
2019-05-21T13:35:14.418Z,18.15
2019-05-21T13:36:14.633Z,18.17
2019-05-21T13:37:14.046Z,18.09
2019-05-21T13:38:14.067Z,18.11
2019-05-21T13:39:14.064Z,18.09
2019-05-21T13:40:14.023Z,18.06
2019-05-21T13:41:14.003Z,18.03
2019-05-21T13:42:14.124Z,18.01
2019-05-21T13:43:14.284Z,17.97
2019-05-21T13:44:14.159Z,17.90
2019-05-21T13:46:13.902Z,17.88
2019-05-21T13:47:13.943Z,17.76
2019-05-21T13:49:13.865Z,17.91
2019-05-21T13:50:14.166Z,17.79
2019-05-21T13:52:13.880Z,17.73
2019-05-21T13:53:13.835Z,17.81
2019-05-21T13:54:13.996Z,17.83
2019-05-21T13:55:14.139Z,17.88
2019-05-21T13:56:13.961Z,17.90
2019-05-21T13:57:14.190Z,17.99
2019-05-21T13:58:13.741Z,18.12
2019-05-21T13:59:13.707Z,18.18
2019-05-21T14:00:14.087Z,18.13
2019-05-21T14:01:16.120Z,18.27
2019-05-21T14:04:13.969Z,18.12
2019-05-21T14:05:13.665Z,18.06
2019-05-21T14:06:14.272Z,18.01
2019-05-21T14:07:13.636Z,18.08
2019-05-21T14:08:13.719Z,18.17
2019-05-21T14:09:17.858Z,18.15
2019-05-21T14:10:19.185Z,18.26
2019-05-21T14:11:13.833Z,18.31
2019-05-21T14:14:13.500Z,18.34
2019-05-21T14:15:13.883Z,18.51
2019-05-21T14:17:13.764Z,18.46
2019-05-21T14:18:13.539Z,18.34
2019-05-21T14:19:13.709Z,18.33
2019-05-21T14:20:13.463Z,18.21
2019-05-21T14:21:13.844Z,18.13
2019-05-21T14:22:13.459Z,18.06
2019-05-21T14:23:13.725Z,18.05
2019-05-21T14:24:15.029Z,18.06
2019-05-21T14:25:13.346Z,18.12
2019-05-21T14:27:13.465Z,18.01
2019-05-21T14:28:13.614Z,18.03
2019-05-21T14:29:13.642Z,17.97
2019-05-21T14:30:13.622Z,18.06